createdAt,value
2023-03-20T00:00:44.248Z,6.90
2023-03-20T00:03:16.013Z,6.68
2023-03-20T00:05:47.469Z,7.60
2023-03-20T00:08:18.889Z,7.22
2023-03-20T00:10:50.367Z,7.63
2023-03-20T00:13:26.126Z,6.63
2023-03-20T00:15:57.646Z,6.60
2023-03-20T00:18:29.170Z,6.43
2023-03-20T00:21:00.639Z,7.00
2023-03-20T00:23:32.106Z,6.00
2023-03-20T00:26:03.568Z,7.00
2023-03-20T00:28:45.783Z,5.87
2023-03-20T00:31:29.168Z,5.90
2023-03-20T00:34:03.370Z,5.82
2023-03-20T00:36:34.854Z,5.72
2023-03-20T00:39:06.344Z,6.57
2023-03-20T00:42:00.268Z,5.22
2023-03-20T00:44:41.777Z,5.80
2023-03-20T00:47:18.999Z,5.75
2023-03-20T00:49:52.102Z,5.65
2023-03-20T00:52:24.633Z,6.55
2023-03-20T00:54:56.126Z,6.33
2023-03-20T00:57:34.402Z,6.55
2023-03-20T01:00:17.475Z,8.15
2023-03-20T01:02:50.873Z,8.05
2023-03-20T01:05:22.519Z,7.47
2023-03-20T01:07:54.069Z,8.40
2023-03-20T01:10:30.026Z,8.32
2023-03-20T01:13:02.165Z,9.07
2023-03-20T01:15:34.679Z,8.63
2023-03-20T01:18:06.303Z,8.82
2023-03-20T01:20:37.734Z,8.32
2023-03-20T01:23:10.101Z,8.52
2023-03-20T01:25:42.108Z,8.38
2023-03-20T01:28:22.420Z,9.20
2023-03-20T01:30:53.864Z,8.23
2023-03-20T01:33:25.233Z,8.52
2023-03-20T01:35:56.842Z,8.45
2023-03-20T01:38:28.509Z,7.95
2023-03-20T01:41:06.590Z,8.48
2023-03-20T01:43:38.188Z,8.25
2023-03-20T01:46:09.747Z,8.57
2023-03-20T01:49:07.192Z,8.20
2023-03-20T01:51:38.626Z,8.35
2023-03-20T01:54:15.065Z,8.13
2023-03-20T01:57:05.101Z,8.00
2023-03-20T01:59:57.921Z,8.18
2023-03-20T02:02:31.969Z,8.80
2023-03-20T02:05:08.561Z,8.70
2023-03-20T02:07:40.136Z,7.85
2023-03-20T02:10:15.035Z,8.50
2023-03-20T02:12:47.172Z,7.90
2023-03-20T02:15:18.680Z,7.70
2023-03-20T02:17:50.185Z,8.13
2023-03-20T02:20:44.156Z,7.33
2023-03-20T02:23:33.874Z,8.80
2023-03-20T02:26:08.407Z,9.05
2023-03-20T02:29:17.665Z,8.52
2023-03-20T02:32:07.305Z,9.88
2023-03-20T02:35:00.618Z,9.97
2023-03-20T02:38:03.068Z,9.52
2023-03-20T02:40:49.848Z,9.98
2023-03-20T02:43:33.578Z,10.68
2023-03-20T02:46:23.010Z,10.57
2023-03-20T02:49:03.278Z,11.10
2023-03-20T02:51:45.680Z,12.17
2023-03-20T02:54:32.202Z,12.00
2023-03-20T02:57:28.428Z,13.23
2023-03-20T03:00:28.249Z,12.75
2023-03-20T03:03:15.583Z,12.35
2023-03-20T03:05:55.807Z,12.98
2023-03-20T03:08:33.789Z,12.77
2023-03-20T03:11:08.386Z,12.75
2023-03-20T03:13:46.760Z,13.05
2023-03-20T03:16:27.300Z,13.35
2023-03-20T03:19:07.431Z,13.05
2023-03-20T03:21:40.657Z,13.38
2023-03-20T03:24:40.724Z,13.57
2023-03-20T03:27:21.379Z,13.60
2023-03-20T03:30:02.050Z,13.35
2023-03-20T03:32:36.715Z,13.02
2023-03-20T03:35:17.401Z,12.03
2023-03-20T03:38:00.848Z,12.55
2023-03-20T03:40:41.614Z,13.50
2023-03-20T03:43:26.280Z,13.13
2023-03-20T03:46:27.102Z,12.57
2023-03-20T03:49:00.625Z,13.07
2023-03-20T03:51:35.976Z,13.20
2023-03-20T03:54:13.874Z,12.63
2023-03-20T03:56:48.932Z,13.18
2023-03-20T03:59:30.122Z,13.15
2023-03-20T04:02:02.219Z,13.32
2023-03-20T04:04:35.953Z,12.70
2023-03-20T04:07:07.458Z,13.32
2023-03-20T04:09:38.842Z,13.65
2023-03-20T04:12:26.835Z,12.00
2023-03-20T04:14:58.348Z,12.10
2023-03-20T04:17:30.017Z,11.77
2023-03-20T04:20:02.214Z,12.63
2023-03-20T04:22:33.743Z,12.33
2023-03-20T04:25:06.731Z,12.00
2023-03-20T04:27:38.211Z,12.15
2023-03-20T04:30:10.680Z,11.18
2023-03-20T04:32:42.362Z,12.57
2023-03-20T04:35:13.869Z,11.43
2023-03-20T04:37:45.275Z,12.02
2023-03-20T04:40:16.831Z,11.90
2023-03-20T04:42:48.309Z,11.43
2023-03-20T04:45:19.791Z,11.25
2023-03-20T04:47:51.273Z,11.35
2023-03-20T04:50:23.166Z,12.30
2023-03-20T04:52:54.584Z,11.88
2023-03-20T04:55:26.873Z,11.93
2023-03-20T04:57:58.413Z,10.90
2023-03-20T05:00:30.033Z,11.05
2023-03-20T05:03:01.526Z,11.05
2023-03-20T05:05:33.223Z,11.73
2023-03-20T05:08:05.940Z,11.57
2023-03-20T05:10:37.426Z,11.80
2023-03-20T05:13:08.886Z,11.13
2023-03-20T05:15:40.377Z,11.10
2023-03-20T05:18:11.820Z,11.15
2023-03-20T05:20:43.302Z,10.90
2023-03-20T05:23:14.762Z,11.07
2023-03-20T05:25:46.238Z,11.68
2023-03-20T05:28:17.722Z,11.05
2023-03-20T05:30:49.202Z,11.85
2023-03-20T05:33:20.680Z,11.43
2023-03-20T05:35:52.207Z,11.32
2023-03-20T05:38:23.731Z,10.70
2023-03-20T05:41:01.473Z,10.82
2023-03-20T05:43:32.894Z,10.73
2023-03-20T05:46:04.478Z,10.90
2023-03-20T05:48:35.983Z,11.27
2023-03-20T05:51:07.633Z,11.05
2023-03-20T05:53:39.115Z,10.60
2023-03-20T05:56:10.523Z,10.40
2023-03-20T05:58:41.955Z,10.52
2023-03-20T06:01:13.418Z,9.53
2023-03-20T06:03:44.927Z,10.43
2023-03-20T06:06:17.719Z,10.57
2023-03-20T06:08:49.297Z,9.77
2023-03-20T06:11:20.766Z,9.57
2023-03-20T06:13:52.164Z,9.77
2023-03-20T06:16:23.703Z,9.43
2023-03-20T06:18:55.224Z,9.18
2023-03-20T06:21:26.678Z,9.38
2023-03-20T06:23:58.273Z,9.70
2023-03-20T06:26:29.711Z,8.88
2023-03-20T06:29:01.161Z,9.65
2023-03-20T06:31:32.693Z,9.18
2023-03-20T06:34:04.201Z,8.93
2023-03-20T06:36:35.693Z,8.68
2023-03-20T06:39:07.185Z,8.43
2023-03-20T06:41:38.643Z,8.02
2023-03-20T06:44:10.203Z,8.27
2023-03-20T06:46:41.644Z,7.77
2023-03-20T06:49:13.143Z,7.35
2023-03-20T06:51:44.663Z,7.95
2023-03-20T06:54:16.121Z,7.57
2023-03-20T06:56:47.550Z,7.33
2023-03-20T06:59:19.002Z,6.95
2023-03-20T07:01:50.489Z,6.70
2023-03-20T07:04:21.986Z,6.78
2023-03-20T07:06:53.727Z,5.90
2023-03-20T07:09:25.852Z,6.32
2023-03-20T07:11:57.296Z,6.17
2023-03-20T07:14:28.802Z,6.80
2023-03-20T07:17:00.300Z,6.47
2023-03-20T07:19:32.733Z,7.07
2023-03-20T07:22:07.860Z,6.80
2023-03-20T07:24:39.346Z,7.22
2023-03-20T07:27:10.768Z,6.50
2023-03-20T07:29:42.222Z,7.18
2023-03-20T07:32:13.745Z,7.28
2023-03-20T07:34:45.255Z,6.82
2023-03-20T07:37:16.842Z,6.80
2023-03-20T07:39:48.292Z,6.80
2023-03-20T07:42:19.719Z,6.53
2023-03-20T07:44:51.152Z,6.53
2023-03-20T07:47:22.638Z,6.82
2023-03-20T07:49:54.094Z,6.65
2023-03-20T07:52:25.518Z,6.93
2023-03-20T07:54:57.085Z,6.07
2023-03-20T07:57:28.692Z,6.35
2023-03-20T08:00:00.123Z,7.18
2023-03-20T08:02:31.668Z,6.57
2023-03-20T08:05:03.170Z,6.10
2023-03-20T08:07:35.355Z,6.88
2023-03-20T08:10:07.556Z,7.28
2023-03-20T08:12:39.030Z,6.65
2023-03-20T08:15:11.021Z,6.80
2023-03-20T08:17:43.796Z,7.17
2023-03-20T08:20:16.416Z,6.95
2023-03-20T08:22:47.879Z,7.05
2023-03-20T08:25:19.337Z,7.30
2023-03-20T08:27:50.810Z,6.38
2023-03-20T08:30:22.307Z,6.73
2023-03-20T08:32:53.915Z,6.88
2023-03-20T08:35:32.997Z,6.65
2023-03-20T08:38:04.988Z,6.75
2023-03-20T08:40:36.426Z,6.15
2023-03-20T08:43:08.317Z,7.00
2023-03-20T08:45:39.771Z,6.60
2023-03-20T08:48:11.367Z,6.85
2023-03-20T08:50:42.958Z,6.53
2023-03-20T08:53:14.476Z,6.95
2023-03-20T08:55:49.541Z,7.75
2023-03-20T08:58:21.704Z,6.90
2023-03-20T09:00:53.294Z,6.60
2023-03-20T09:03:24.728Z,6.97
2023-03-20T09:05:56.241Z,7.07
2023-03-20T09:08:27.767Z,7.15
2023-03-20T09:10:59.200Z,7.65
2023-03-20T09:13:30.635Z,7.72
2023-03-20T09:16:02.163Z,7.88
2023-03-20T09:18:33.725Z,8.27
2023-03-20T09:21:05.452Z,8.38
2023-03-20T09:23:36.868Z,8.43
2023-03-20T09:26:08.353Z,9.07
2023-03-20T09:28:39.764Z,9.53
2023-03-20T09:31:11.319Z,9.57
2023-03-20T09:33:42.865Z,11.40
2023-03-20T09:36:14.316Z,10.73
2023-03-20T09:38:45.836Z,10.65
2023-03-20T09:41:22.504Z,10.60
2023-03-20T09:43:59.607Z,11.48
2023-03-20T09:47:16.442Z,11.73
2023-03-20T09:50:27.889Z,11.52
2023-03-20T09:53:30.801Z,12.57
2023-03-20T09:56:02.680Z,12.40
2023-03-20T09:58:37.557Z,11.85
2023-03-20T10:01:14.248Z,12.48
2023-03-20T10:04:01.842Z,11.65
2023-03-20T10:06:33.939Z,11.95
2023-03-20T10:09:15.706Z,12.13
2023-03-20T10:12:08.827Z,12.15
2023-03-20T10:15:08.324Z,12.88
2023-03-20T10:18:01.130Z,12.15
2023-03-20T10:20:32.527Z,12.37
2023-03-20T10:23:19.187Z,12.63
2023-03-20T10:25:56.413Z,11.82
2023-03-20T10:28:56.948Z,12.73
2023-03-20T10:31:45.604Z,12.25
2023-03-20T10:34:39.744Z,12.80
2023-03-20T10:37:18.223Z,11.95
2023-03-20T10:40:14.281Z,12.18
2023-03-20T10:42:48.320Z,12.10
2023-03-20T10:45:28.026Z,13.02
2023-03-20T10:48:02.631Z,12.23
2023-03-20T10:50:45.807Z,11.75
2023-03-20T10:53:45.772Z,12.50
2023-03-20T10:56:26.070Z,12.13
2023-03-20T10:59:08.706Z,12.80
2023-03-20T11:01:40.170Z,12.60
2023-03-20T11:04:11.611Z,12.52
2023-03-20T11:07:06.805Z,12.52
2023-03-20T11:09:38.570Z,12.43
2023-03-20T11:12:20.592Z,12.57
2023-03-20T11:15:00.143Z,13.52
2023-03-20T11:17:31.626Z,13.50
2023-03-20T11:20:04.812Z,13.30
2023-03-20T11:22:37.274Z,13.40
2023-03-20T11:25:24.381Z,13.73
2023-03-20T11:27:55.796Z,13.18
2023-03-20T11:30:27.301Z,13.47
2023-03-20T11:33:00.108Z,13.38
2023-03-20T11:35:31.819Z,14.35
2023-03-20T11:38:16.482Z,14.10
2023-03-20T11:40:49.391Z,13.65
2023-03-20T11:43:23.990Z,13.68
2023-03-20T11:45:58.173Z,13.02
2023-03-20T11:48:37.574Z,11.40
2023-03-20T11:51:14.464Z,11.18
2023-03-20T11:53:48.739Z,11.80
2023-03-20T11:56:29.094Z,11.20
2023-03-20T11:59:20.782Z,11.85
2023-03-20T12:01:55.312Z,11.40
2023-03-20T12:04:33.715Z,10.18
2023-03-20T12:07:19.547Z,10.00
2023-03-20T12:09:55.029Z,9.40
2023-03-20T12:13:05.562Z,8.95
2023-03-20T12:15:44.215Z,10.50
2023-03-20T12:18:45.906Z,10.48
2023-03-20T12:21:33.340Z,10.18
2023-03-20T12:24:25.942Z,8.98
2023-03-20T12:27:24.284Z,8.63
2023-03-20T12:30:05.592Z,9.65
2023-03-20T12:33:07.083Z,8.98
2023-03-20T12:35:44.193Z,8.93
2023-03-20T12:38:28.081Z,8.05
2023-03-20T12:41:11.889Z,8.23
2023-03-20T12:44:11.846Z,7.72
2023-03-20T12:46:51.509Z,7.97
2023-03-20T12:49:41.517Z,7.97
2023-03-20T12:52:37.168Z,8.02
2023-03-20T12:55:20.584Z,7.15
2023-03-20T12:58:01.718Z,7.20
2023-03-20T13:00:42.795Z,6.17
2023-03-20T13:03:37.567Z,6.55
2023-03-20T13:06:08.934Z,6.30
2023-03-20T13:09:08.525Z,6.60
2023-03-20T13:11:51.819Z,6.45
2023-03-20T13:14:44.056Z,5.68
2023-03-20T13:17:33.955Z,5.65
2023-03-20T13:20:30.265Z,6.35
2023-03-20T13:23:19.299Z,5.95
2023-03-20T13:26:43.014Z,6.30
2023-03-20T13:29:35.129Z,5.50
2023-03-20T13:32:21.553Z,5.63
2023-03-20T13:35:22.494Z,5.73
2023-03-20T13:38:01.168Z,6.25
2023-03-20T13:40:41.323Z,7.10
2023-03-20T13:43:34.465Z,6.75
2023-03-20T13:46:12.642Z,7.78
2023-03-20T13:48:45.619Z,7.80
2023-03-20T13:51:31.607Z,6.97
2023-03-20T13:54:21.059Z,8.27
2023-03-20T13:56:59.863Z,7.93
2023-03-20T14:00:19.131Z,9.90
2023-03-20T14:03:11.703Z,8.98
2023-03-20T14:05:44.231Z,8.30
2023-03-20T14:08:29.121Z,8.93
2023-03-20T14:11:12.452Z,8.30
2023-03-20T14:14:00.792Z,7.87
2023-03-20T14:16:32.328Z,8.13
2023-03-20T14:19:25.082Z,7.60
2023-03-20T14:21:57.262Z,6.93
2023-03-20T14:24:29.130Z,6.80
2023-03-20T14:27:00.966Z,7.40
2023-03-20T14:29:37.559Z,6.25
2023-03-20T14:32:11.789Z,7.93
2023-03-20T14:34:52.410Z,7.68
2023-03-20T14:37:37.704Z,7.60
2023-03-20T14:40:22.595Z,6.50
2023-03-20T14:43:22.202Z,4.65
2023-03-20T14:46:46.241Z,5.05
2023-03-20T14:49:25.886Z,4.60
2023-03-20T14:52:12.511Z,3.97
2023-03-20T14:54:52.709Z,3.90
2023-03-20T14:57:45.473Z,3.83
2023-03-20T15:00:33.120Z,4.30
2023-03-20T15:03:10.496Z,4.60
2023-03-20T15:05:42.566Z,5.20
2023-03-20T15:08:24.620Z,5.10
2023-03-20T15:11:05.783Z,5.77
2023-03-20T15:13:38.096Z,5.43
2023-03-20T15:16:14.729Z,5.60
2023-03-20T15:18:50.726Z,6.00
2023-03-20T15:21:37.033Z,5.20
2023-03-20T15:24:16.722Z,6.05
2023-03-20T15:26:52.401Z,5.43
2023-03-20T15:29:24.353Z,6.82
2023-03-20T15:32:12.873Z,5.95
2023-03-20T15:34:46.905Z,6.22
2023-03-20T15:37:23.602Z,5.90
2023-03-20T15:39:55.482Z,5.32
2023-03-20T15:42:26.982Z,5.95
2023-03-20T15:44:58.402Z,5.65
2023-03-20T15:47:29.861Z,5.93
2023-03-20T15:50:01.306Z,5.77
2023-03-20T15:52:44.939Z,5.30
2023-03-20T15:55:18.634Z,5.97
2023-03-20T15:57:51.468Z,5.55
2023-03-20T16:00:34.118Z,5.55
2023-03-20T16:03:08.795Z,5.43
2023-03-20T16:05:44.419Z,5.33
2023-03-20T16:08:29.885Z,5.20
2023-03-20T16:11:04.455Z,6.23
2023-03-20T16:13:40.995Z,5.72
2023-03-20T16:16:18.800Z,5.80
2023-03-20T16:18:51.038Z,5.70
2023-03-20T16:21:28.062Z,5.15
2023-03-20T16:24:00.470Z,5.22
2023-03-20T16:26:37.971Z,6.90
2023-03-20T16:29:13.851Z,6.70
2023-03-20T16:31:53.854Z,6.30
2023-03-20T16:34:34.510Z,6.20
2023-03-20T16:37:25.257Z,5.82
2023-03-20T16:40:11.808Z,6.55
2023-03-20T16:42:44.388Z,6.32
2023-03-20T16:45:33.646Z,6.65
2023-03-20T16:48:10.812Z,6.30
2023-03-20T16:50:45.213Z,6.22
2023-03-20T16:53:18.588Z,6.20
2023-03-20T16:55:54.861Z,6.35
2023-03-20T16:58:33.264Z,6.15
2023-03-20T17:01:07.211Z,6.07
2023-03-20T17:03:47.743Z,5.50
2023-03-20T17:06:19.158Z,5.80
2023-03-20T17:08:54.559Z,5.70
2023-03-20T17:11:37.769Z,6.25
2023-03-20T17:14:09.218Z,5.97
2023-03-20T17:16:40.819Z,5.40
2023-03-20T17:19:17.744Z,4.80
2023-03-20T17:21:49.705Z,5.13
2023-03-20T17:24:21.253Z,5.00
2023-03-20T17:26:55.162Z,5.03
2023-03-20T17:29:26.643Z,4.35
2023-03-20T17:31:58.139Z,4.50
2023-03-20T17:34:29.590Z,4.88
2023-03-20T17:37:01.099Z,4.18
2023-03-20T17:39:32.683Z,3.60
2023-03-20T17:42:05.835Z,4.10
2023-03-20T17:44:37.264Z,3.70
2023-03-20T17:47:15.257Z,3.95
2023-03-20T17:49:47.176Z,3.97
2023-03-20T17:52:21.774Z,3.65
2023-03-20T17:54:53.319Z,4.47
2023-03-20T17:57:32.721Z,4.10
2023-03-20T18:00:07.307Z,4.20
2023-03-20T18:02:38.767Z,4.35
2023-03-20T18:05:10.598Z,4.05
2023-03-20T18:07:42.169Z,3.22
2023-03-20T18:10:23.480Z,3.30
2023-03-20T18:12:59.333Z,3.40
2023-03-20T18:15:30.909Z,3.22
2023-03-20T18:18:02.410Z,3.28
2023-03-20T18:20:36.771Z,2.97
2023-03-20T18:23:09.157Z,3.58
2023-03-20T18:25:41.144Z,2.90
2023-03-20T18:28:14.728Z,2.85
2023-03-20T18:30:46.822Z,2.50
2023-03-20T18:33:18.428Z,2.67
2023-03-20T18:35:49.986Z,2.33
2023-03-20T18:38:21.430Z,2.35
2023-03-20T18:40:52.909Z,2.15
2023-03-20T18:43:24.360Z,2.25
2023-03-20T18:45:55.868Z,2.00
2023-03-20T18:48:27.392Z,2.40
2023-03-20T18:50:58.985Z,2.08
2023-03-20T18:53:30.512Z,2.50
2023-03-20T18:56:01.981Z,2.28
2023-03-20T18:58:33.427Z,2.50
2023-03-20T19:01:04.907Z,2.17
2023-03-20T19:03:36.484Z,2.30
2023-03-20T19:06:12.964Z,2.25
2023-03-20T19:08:45.284Z,2.67
2023-03-20T19:11:19.713Z,3.25
2023-03-20T19:13:53.362Z,3.78
2023-03-20T19:16:26.044Z,3.40
2023-03-20T19:19:00.299Z,3.38
2023-03-20T19:21:33.364Z,3.30
2023-03-20T19:24:06.558Z,3.65
2023-03-20T19:26:38.086Z,3.92
2023-03-20T19:29:11.743Z,3.60
2023-03-20T19:31:43.303Z,3.20
2023-03-20T19:34:44.580Z,3.83
2023-03-20T19:37:06.324Z,4.20
2023-03-20T19:39:37.754Z,3.45
2023-03-20T19:42:37.838Z,3.83
2023-03-20T19:45:00.704Z,3.90
2023-03-20T19:47:32.298Z,3.03
2023-03-20T19:50:04.824Z,3.50
2023-03-20T19:52:36.396Z,3.65
2023-03-20T19:55:10.761Z,2.97
2023-03-20T19:57:42.208Z,3.70
2023-03-20T20:03:07.813Z,3.00
2023-03-20T20:05:39.270Z,2.92
2023-03-20T20:08:26.139Z,3.42
2023-03-20T20:11:01.382Z,3.65
2023-03-20T20:13:33.867Z,3.83
2023-03-20T20:16:05.532Z,4.43
2023-03-20T20:18:36.988Z,3.97
2023-03-20T20:23:59.977Z,4.30
2023-03-20T20:26:38.516Z,3.97
2023-03-20T20:29:11.880Z,4.13
2023-03-20T20:31:44.161Z,4.43
2023-03-20T20:39:59.035Z,4.18
2023-03-20T20:42:30.533Z,4.43
2023-03-20T20:45:01.956Z,4.93
2023-03-20T20:47:33.836Z,5.18
2023-03-20T20:50:05.529Z,6.03
2023-03-20T20:52:40.948Z,5.65
2023-03-20T20:55:22.681Z,5.63
2023-03-20T20:57:55.451Z,6.07
2023-03-20T21:00:37.517Z,6.13
2023-03-20T21:03:17.121Z,5.78
2023-03-20T21:05:48.577Z,6.43
2023-03-20T21:08:20.073Z,7.40
2023-03-20T21:10:51.579Z,7.22
2023-03-20T21:13:23.042Z,6.25
2023-03-20T21:15:58.708Z,6.70
2023-03-20T21:18:30.203Z,6.13
2023-03-20T21:21:08.431Z,6.10
2023-03-20T21:23:41.028Z,6.30
2023-03-20T21:26:12.432Z,6.10
2023-03-20T21:28:43.924Z,6.10
2023-03-20T21:31:26.772Z,6.15
2023-03-20T21:33:59.954Z,5.70
2023-03-20T21:36:32.105Z,6.00
2023-03-20T21:39:08.930Z,6.32
2023-03-20T21:41:40.904Z,6.00
2023-03-20T21:44:17.429Z,5.65
2023-03-20T21:50:34.325Z,6.20
2023-03-20T21:53:10.496Z,6.38
2023-03-20T22:01:53.260Z,6.03
2023-03-20T22:07:32.059Z,5.60
2023-03-20T22:16:03.347Z,6.18
2023-03-20T22:19:08.466Z,6.78
2023-03-20T22:21:48.390Z,8.23
2023-03-20T22:27:40.114Z,8.00
2023-03-20T22:30:30.862Z,8.00
2023-03-20T22:33:22.390Z,8.90
2023-03-20T22:36:21.571Z,9.40
2023-03-20T22:41:59.241Z,9.02
2023-03-20T22:44:50.612Z,8.93
2023-03-20T22:46:50.367Z,8.77
2023-03-20T22:49:21.840Z,8.35
2023-03-20T22:52:11.266Z,10.73
2023-03-20T22:54:44.701Z,8.80
2023-03-20T22:57:16.126Z,10.10
2023-03-20T22:59:47.552Z,11.00
2023-03-20T23:02:18.988Z,10.40
2023-03-20T23:04:50.421Z,10.05
2023-03-20T23:07:21.873Z,10.18
2023-03-20T23:09:53.356Z,10.13
2023-03-20T23:12:24.893Z,9.98
2023-03-20T23:14:56.406Z,11.40
2023-03-20T23:17:27.921Z,11.88
2023-03-20T23:20:10.480Z,11.73
2023-03-20T23:22:43.349Z,12.57
2023-03-20T23:25:23.888Z,13.45
2023-03-20T23:28:02.357Z,14.27
2023-03-20T23:30:44.210Z,13.95
2023-03-20T23:33:17.883Z,15.02
2023-03-20T23:35:57.984Z,14.38
2023-03-20T23:38:29.950Z,13.88
2023-03-20T23:41:01.399Z,13.93
2023-03-20T23:43:32.877Z,14.23
2023-03-20T23:46:05.352Z,14.25
2023-03-20T23:48:36.893Z,14.55
2023-03-20T23:51:08.742Z,14.20
2023-03-20T23:53:40.323Z,14.52
2023-03-20T23:56:13.099Z,14.63
2023-03-20T23:58:54.856Z,14.77
